sensor_id;sensor_type;location;lat;lon;timestamp;P1;durP1;ratioP1;P2;durP2;ratioP2
4268;SDS011;2148;48.554;7.834;2023-03-23T00:02:19;2.80;;;2.60;;
4268;SDS011;2148;48.554;7.834;2023-03-23T00:04:47;2.80;;;2.43;;
4268;SDS011;2148;48.554;7.834;2023-03-23T00:07:14;2.37;;;2.13;;
4268;SDS011;2148;48.554;7.834;2023-03-23T00:09:49;2.67;;;2.47;;
4268;SDS011;2148;48.554;7.834;2023-03-23T00:12:22;2.37;;;1.97;;
4268;SDS011;2148;48.554;7.834;2023-03-23T00:14:58;3.10;;;2.40;;
4268;SDS011;2148;48.554;7.834;2023-03-23T00:17:25;2.83;;;2.30;;
4268;SDS011;2148;48.554;7.834;2023-03-23T00:19:51;2.77;;;2.50;;
4268;SDS011;2148;48.554;7.834;2023-03-23T00:22:16;4.00;;;2.60;;
4268;SDS011;2148;48.554;7.834;2023-03-23T00:24:44;3.13;;;2.27;;
4268;SDS011;2148;48.554;7.834;2023-03-23T00:27:09;3.67;;;2.60;;
4268;SDS011;2148;48.554;7.834;2023-03-23T00:29:37;3.03;;;2.60;;
4268;SDS011;2148;48.554;7.834;2023-03-23T00:32:03;4.43;;;3.00;;
4268;SDS011;2148;48.554;7.834;2023-03-23T00:34:28;2.93;;;2.53;;
4268;SDS011;2148;48.554;7.834;2023-03-23T00:36:57;3.60;;;2.80;;
4268;SDS011;2148;48.554;7.834;2023-03-23T00:39:23;2.60;;;2.40;;
4268;SDS011;2148;48.554;7.834;2023-03-23T00:41:50;2.90;;;2.60;;
4268;SDS011;2148;48.554;7.834;2023-03-23T00:44:16;3.10;;;2.50;;
4268;SDS011;2148;48.554;7.834;2023-03-23T00:46:44;3.23;;;2.90;;
4268;SDS011;2148;48.554;7.834;2023-03-23T00:49:15;4.30;;;2.77;;
4268;SDS011;2148;48.554;7.834;2023-03-23T00:51:43;3.67;;;2.50;;
4268;SDS011;2148;48.554;7.834;2023-03-23T00:54:08;2.73;;;2.47;;
4268;SDS011;2148;48.554;7.834;2023-03-23T00:56:35;2.90;;;2.30;;
4268;SDS011;2148;48.554;7.834;2023-03-23T00:59:00;3.03;;;2.77;;
4268;SDS011;2148;48.554;7.834;2023-03-23T01:01:26;2.50;;;2.30;;
4268;SDS011;2148;48.554;7.834;2023-03-23T01:03:51;2.77;;;2.53;;
4268;SDS011;2148;48.554;7.834;2023-03-23T01:06:18;3.83;;;2.40;;
4268;SDS011;2148;48.554;7.834;2023-03-23T01:08:43;3.20;;;2.70;;
4268;SDS011;2148;48.554;7.834;2023-03-23T01:11:15;3.00;;;2.43;;
4268;SDS011;2148;48.554;7.834;2023-03-23T01:13:43;2.90;;;2.70;;
4268;SDS011;2148;48.554;7.834;2023-03-23T01:16:09;2.77;;;2.57;;
4268;SDS011;2148;48.554;7.834;2023-03-23T01:18:35;3.90;;;2.73;;
4268;SDS011;2148;48.554;7.834;2023-03-23T01:21:07;3.80;;;2.40;;
4268;SDS011;2148;48.554;7.834;2023-03-23T01:23:35;2.90;;;2.60;;
4268;SDS011;2148;48.554;7.834;2023-03-23T01:26:05;3.47;;;2.63;;
4268;SDS011;2148;48.554;7.834;2023-03-23T01:28:32;4.63;;;2.53;;
4268;SDS011;2148;48.554;7.834;2023-03-23T01:31:02;3.20;;;2.70;;
4268;SDS011;2148;48.554;7.834;2023-03-23T01:33:28;3.43;;;2.60;;
4268;SDS011;2148;48.554;7.834;2023-03-23T01:35:53;2.67;;;2.47;;
4268;SDS011;2148;48.554;7.834;2023-03-23T01:38:18;2.73;;;2.53;;
4268;SDS011;2148;48.554;7.834;2023-03-23T01:40:44;2.80;;;2.60;;
4268;SDS011;2148;48.554;7.834;2023-03-23T01:43:13;3.00;;;2.60;;
4268;SDS011;2148;48.554;7.834;2023-03-23T01:45:39;2.90;;;2.60;;
4268;SDS011;2148;48.554;7.834;2023-03-23T01:50:47;2.30;;;2.10;;
4268;SDS011;2148;48.554;7.834;2023-03-23T01:53:25;3.10;;;2.23;;
4268;SDS011;2148;48.554;7.834;2023-03-23T01:55:53;3.17;;;2.30;;
4268;SDS011;2148;48.554;7.834;2023-03-23T01:58:22;2.70;;;2.10;;
4268;SDS011;2148;48.554;7.834;2023-03-23T02:00:52;2.40;;;2.20;;
4268;SDS011;2148;48.554;7.834;2023-03-23T02:03:19;2.73;;;2.40;;
4268;SDS011;2148;48.554;7.834;2023-03-23T02:05:44;2.90;;;2.60;;
4268;SDS011;2148;48.554;7.834;2023-03-23T02:08:10;3.20;;;2.20;;
4268;SDS011;2148;48.554;7.834;2023-03-23T02:10:37;2.57;;;2.33;;
4268;SDS011;2148;48.554;7.834;2023-03-23T02:13:04;2.53;;;2.33;;
4268;SDS011;2148;48.554;7.834;2023-03-23T02:18:21;2.40;;;2.20;;
4268;SDS011;2148;48.554;7.834;2023-03-23T02:24:04;4.00;;;2.20;;
4268;SDS011;2148;48.554;7.834;2023-03-23T02:32:16;3.47;;;2.30;;
4268;SDS011;2148;48.554;7.834;2023-03-23T02:34:49;4.60;;;2.60;;
4268;SDS011;2148;48.554;7.834;2023-03-23T02:37:30;3.40;;;2.40;;
4268;SDS011;2148;48.554;7.834;2023-03-23T02:40:09;2.60;;;2.30;;
4268;SDS011;2148;48.554;7.834;2023-03-23T02:42:37;2.50;;;2.20;;
4268;SDS011;2148;48.554;7.834;2023-03-23T02:45:05;3.17;;;2.33;;
4268;SDS011;2148;48.554;7.834;2023-03-23T02:47:33;2.60;;;2.40;;
4268;SDS011;2148;48.554;7.834;2023-03-23T02:50:01;2.80;;;2.60;;
4268;SDS011;2148;48.554;7.834;2023-03-23T02:52:30;4.30;;;2.67;;
4268;SDS011;2148;48.554;7.834;2023-03-23T02:54:56;2.60;;;2.40;;
4268;SDS011;2148;48.554;7.834;2023-03-23T02:57:24;2.90;;;2.27;;
4268;SDS011;2148;48.554;7.834;2023-03-23T02:59:51;3.23;;;2.23;;
4268;SDS011;2148;48.554;7.834;2023-03-23T03:02:29;2.90;;;2.43;;
4268;SDS011;2148;48.554;7.834;2023-03-23T03:05:05;2.57;;;2.37;;
4268;SDS011;2148;48.554;7.834;2023-03-23T03:07:41;2.87;;;2.53;;
4268;SDS011;2148;48.554;7.834;2023-03-23T03:13:09;2.63;;;2.40;;
4268;SDS011;2148;48.554;7.834;2023-03-23T03:15:44;3.03;;;2.40;;
4268;SDS011;2148;48.554;7.834;2023-03-23T03:18:43;2.57;;;2.20;;
4268;SDS011;2148;48.554;7.834;2023-03-23T03:21:18;3.90;;;2.40;;
4268;SDS011;2148;48.554;7.834;2023-03-23T03:23:50;2.70;;;2.37;;
4268;SDS011;2148;48.554;7.834;2023-03-23T03:26:16;2.40;;;2.20;;
4268;SDS011;2148;48.554;7.834;2023-03-23T03:28:42;2.30;;;2.10;;
4268;SDS011;2148;48.554;7.834;2023-03-23T03:31:12;2.37;;;2.17;;
4268;SDS011;2148;48.554;7.834;2023-03-23T03:33:38;2.43;;;2.23;;
4268;SDS011;2148;48.554;7.834;2023-03-23T03:36:03;4.57;;;2.33;;
4268;SDS011;2148;48.554;7.834;2023-03-23T03:38:40;3.50;;;2.33;;
4268;SDS011;2148;48.554;7.834;2023-03-23T03:41:09;2.30;;;2.10;;
4268;SDS011;2148;48.554;7.834;2023-03-23T03:43:35;2.50;;;2.30;;
4268;SDS011;2148;48.554;7.834;2023-03-23T03:46:00;2.53;;;2.30;;
4268;SDS011;2148;48.554;7.834;2023-03-23T03:48:26;2.70;;;2.50;;
4268;SDS011;2148;48.554;7.834;2023-03-23T03:50:51;3.03;;;2.30;;
4268;SDS011;2148;48.554;7.834;2023-03-23T03:53:17;2.50;;;2.30;;
4268;SDS011;2148;48.554;7.834;2023-03-23T03:55:42;3.27;;;2.27;;
4268;SDS011;2148;48.554;7.834;2023-03-23T03:58:10;2.30;;;2.10;;
4268;SDS011;2148;48.554;7.834;2023-03-23T04:00:35;3.80;;;2.47;;
4268;SDS011;2148;48.554;7.834;2023-03-23T04:03:01;3.70;;;2.40;;
4268;SDS011;2148;48.554;7.834;2023-03-23T04:05:26;3.13;;;2.27;;
4268;SDS011;2148;48.554;7.834;2023-03-23T04:07:53;3.10;;;2.30;;
4268;SDS011;2148;48.554;7.834;2023-03-23T04:10:26;3.23;;;2.63;;
4268;SDS011;2148;48.554;7.834;2023-03-23T04:12:51;2.90;;;2.40;;
4268;SDS011;2148;48.554;7.834;2023-03-23T04:15:16;2.97;;;2.20;;
4268;SDS011;2148;48.554;7.834;2023-03-23T04:17:41;3.70;;;3.33;;
4268;SDS011;2148;48.554;7.834;2023-03-23T04:20:07;3.40;;;2.63;;
4268;SDS011;2148;48.554;7.834;2023-03-23T04:22:40;3.37;;;3.07;;
4268;SDS011;2148;48.554;7.834;2023-03-23T04:25:09;4.53;;;3.67;;
4268;SDS011;2148;48.554;7.834;2023-03-23T04:27:37;7.57;;;6.10;;
4268;SDS011;2148;48.554;7.834;2023-03-23T04:30:03;6.07;;;5.00;;
4268;SDS011;2148;48.554;7.834;2023-03-23T04:32:29;4.20;;;3.40;;
4268;SDS011;2148;48.554;7.834;2023-03-23T04:34:56;4.03;;;3.37;;
4268;SDS011;2148;48.554;7.834;2023-03-23T04:37:23;4.07;;;3.07;;
4268;SDS011;2148;48.554;7.834;2023-03-23T04:39:51;3.40;;;2.70;;
4268;SDS011;2148;48.554;7.834;2023-03-23T04:42:25;4.83;;;2.90;;
4268;SDS011;2148;48.554;7.834;2023-03-23T04:44:51;2.70;;;2.50;;
4268;SDS011;2148;48.554;7.834;2023-03-23T04:47:18;3.47;;;2.83;;
4268;SDS011;2148;48.554;7.834;2023-03-23T04:49:44;3.93;;;2.97;;
4268;SDS011;2148;48.554;7.834;2023-03-23T04:52:09;3.83;;;2.30;;
4268;SDS011;2148;48.554;7.834;2023-03-23T04:54:35;2.50;;;2.30;;
4268;SDS011;2148;48.554;7.834;2023-03-23T04:57:00;2.97;;;2.30;;
4268;SDS011;2148;48.554;7.834;2023-03-23T04:59:25;2.53;;;2.23;;
4268;SDS011;2148;48.554;7.834;2023-03-23T05:01:52;4.77;;;2.40;;
4268;SDS011;2148;48.554;7.834;2023-03-23T05:04:18;2.87;;;2.37;;
4268;SDS011;2148;48.554;7.834;2023-03-23T05:06:43;3.30;;;2.77;;
4268;SDS011;2148;48.554;7.834;2023-03-23T05:09:10;2.70;;;2.40;;
4268;SDS011;2148;48.554;7.834;2023-03-23T05:11:35;3.33;;;2.30;;
4268;SDS011;2148;48.554;7.834;2023-03-23T05:14:02;3.37;;;2.30;;
4268;SDS011;2148;48.554;7.834;2023-03-23T05:16:28;4.17;;;2.40;;
4268;SDS011;2148;48.554;7.834;2023-03-23T05:18:55;3.00;;;2.40;;
4268;SDS011;2148;48.554;7.834;2023-03-23T05:21:22;2.83;;;2.40;;
4268;SDS011;2148;48.554;7.834;2023-03-23T05:23:47;4.17;;;2.53;;
4268;SDS011;2148;48.554;7.834;2023-03-23T05:26:19;4.13;;;2.70;;
4268;SDS011;2148;48.554;7.834;2023-03-23T05:28:49;2.53;;;2.23;;
4268;SDS011;2148;48.554;7.834;2023-03-23T05:31:17;3.50;;;3.00;;
4268;SDS011;2148;48.554;7.834;2023-03-23T05:33:43;6.43;;;3.17;;
4268;SDS011;2148;48.554;7.834;2023-03-23T05:36:09;2.93;;;2.63;;
4268;SDS011;2148;48.554;7.834;2023-03-23T05:38:35;5.47;;;2.70;;
4268;SDS011;2148;48.554;7.834;2023-03-23T05:41:03;2.83;;;2.50;;
4268;SDS011;2148;48.554;7.834;2023-03-23T05:43:29;3.37;;;2.90;;
4268;SDS011;2148;48.554;7.834;2023-03-23T05:45:54;3.93;;;2.63;;
4268;SDS011;2148;48.554;7.834;2023-03-23T05:48:19;3.27;;;2.77;;
4268;SDS011;2148;48.554;7.834;2023-03-23T05:50:45;3.80;;;2.70;;
4268;SDS011;2148;48.554;7.834;2023-03-23T05:53:10;2.73;;;2.53;;
4268;SDS011;2148;48.554;7.834;2023-03-23T05:55:35;3.00;;;2.70;;
4268;SDS011;2148;48.554;7.834;2023-03-23T05:58:00;4.43;;;3.30;;
4268;SDS011;2148;48.554;7.834;2023-03-23T06:00:26;3.23;;;2.80;;
4268;SDS011;2148;48.554;7.834;2023-03-23T06:02:55;3.63;;;2.70;;
4268;SDS011;2148;48.554;7.834;2023-03-23T06:05:21;4.50;;;2.80;;
4268;SDS011;2148;48.554;7.834;2023-03-23T06:07:47;4.47;;;2.77;;
4268;SDS011;2148;48.554;7.834;2023-03-23T06:10:12;4.23;;;3.00;;
4268;SDS011;2148;48.554;7.834;2023-03-23T06:12:39;2.90;;;2.70;;
4268;SDS011;2148;48.554;7.834;2023-03-23T06:15:05;3.80;;;3.03;;
4268;SDS011;2148;48.554;7.834;2023-03-23T06:17:32;6.30;;;3.23;;
4268;SDS011;2148;48.554;7.834;2023-03-23T06:19:58;4.70;;;2.90;;
4268;SDS011;2148;48.554;7.834;2023-03-23T06:22:23;4.60;;;3.17;;
4268;SDS011;2148;48.554;7.834;2023-03-23T06:24:48;2.60;;;2.33;;
4268;SDS011;2148;48.554;7.834;2023-03-23T06:27:14;3.93;;;2.53;;
4268;SDS011;2148;48.554;7.834;2023-03-23T06:29:40;2.77;;;2.57;;
4268;SDS011;2148;48.554;7.834;2023-03-23T06:32:05;4.20;;;2.70;;
4268;SDS011;2148;48.554;7.834;2023-03-23T06:34:31;2.80;;;2.60;;
4268;SDS011;2148;48.554;7.834;2023-03-23T06:36:57;2.73;;;2.30;;
4268;SDS011;2148;48.554;7.834;2023-03-23T06:39:23;3.73;;;2.70;;
4268;SDS011;2148;48.554;7.834;2023-03-23T06:41:49;3.53;;;2.47;;
4268;SDS011;2148;48.554;7.834;2023-03-23T06:44:14;3.03;;;2.70;;
4268;SDS011;2148;48.554;7.834;2023-03-23T06:46:40;2.93;;;2.43;;
4268;SDS011;2148;48.554;7.834;2023-03-23T06:49:06;4.20;;;2.53;;
4268;SDS011;2148;48.554;7.834;2023-03-23T06:51:32;2.60;;;2.30;;
4268;SDS011;2148;48.554;7.834;2023-03-23T06:53:57;3.20;;;2.90;;
4268;SDS011;2148;48.554;7.834;2023-03-23T06:56:23;3.93;;;2.63;;
4268;SDS011;2148;48.554;7.834;2023-03-23T06:58:48;5.83;;;2.67;;
4268;SDS011;2148;48.554;7.834;2023-03-23T07:01:13;3.00;;;2.70;;
4268;SDS011;2148;48.554;7.834;2023-03-23T07:03:40;2.87;;;2.40;;
4268;SDS011;2148;48.554;7.834;2023-03-23T07:06:06;3.30;;;2.60;;
4268;SDS011;2148;48.554;7.834;2023-03-23T07:08:31;2.50;;;2.30;;
4268;SDS011;2148;48.554;7.834;2023-03-23T07:10:57;3.80;;;2.57;;
4268;SDS011;2148;48.554;7.834;2023-03-23T07:13:22;2.57;;;2.17;;
4268;SDS011;2148;48.554;7.834;2023-03-23T07:15:48;2.47;;;2.23;;
4268;SDS011;2148;48.554;7.834;2023-03-23T07:18:14;2.47;;;2.23;;
4268;SDS011;2148;48.554;7.834;2023-03-23T07:20:40;3.30;;;1.77;;
4268;SDS011;2148;48.554;7.834;2023-03-23T07:23:05;2.27;;;1.70;;
4268;SDS011;2148;48.554;7.834;2023-03-23T07:25:32;2.63;;;2.40;;
4268;SDS011;2148;48.554;7.834;2023-03-23T07:27:58;2.33;;;2.13;;
4268;SDS011;2148;48.554;7.834;2023-03-23T07:30:24;2.83;;;1.93;;
4268;SDS011;2148;48.554;7.834;2023-03-23T07:32:51;3.70;;;2.17;;
4268;SDS011;2148;48.554;7.834;2023-03-23T07:35:16;2.20;;;2.00;;
4268;SDS011;2148;48.554;7.834;2023-03-23T07:37:41;3.90;;;2.30;;
4268;SDS011;2148;48.554;7.834;2023-03-23T07:40:07;2.20;;;1.80;;
4268;SDS011;2148;48.554;7.834;2023-03-23T07:42:43;2.27;;;1.80;;
4268;SDS011;2148;48.554;7.834;2023-03-23T07:45:10;2.90;;;2.20;;
4268;SDS011;2148;48.554;7.834;2023-03-23T07:47:36;2.43;;;1.93;;
4268;SDS011;2148;48.554;7.834;2023-03-23T07:50:02;3.93;;;2.00;;
4268;SDS011;2148;48.554;7.834;2023-03-23T07:52:28;2.73;;;2.20;;
4268;SDS011;2148;48.554;7.834;2023-03-23T07:54:53;2.50;;;2.07;;
4268;SDS011;2148;48.554;7.834;2023-03-23T07:57:18;8.87;;;2.40;;
4268;SDS011;2148;48.554;7.834;2023-03-23T07:59:43;4.20;;;1.90;;
4268;SDS011;2148;48.554;7.834;2023-03-23T08:02:09;6.90;;;2.07;;
4268;SDS011;2148;48.554;7.834;2023-03-23T08:04:35;3.10;;;2.10;;
4268;SDS011;2148;48.554;7.834;2023-03-23T08:07:02;2.33;;;1.80;;
4268;SDS011;2148;48.554;7.834;2023-03-23T08:09:29;6.53;;;2.03;;
4268;SDS011;2148;48.554;7.834;2023-03-23T08:11:55;4.43;;;1.83;;
4268;SDS011;2148;48.554;7.834;2023-03-23T08:14:20;2.37;;;1.63;;
4268;SDS011;2148;48.554;7.834;2023-03-23T08:16:46;2.97;;;1.87;;
4268;SDS011;2148;48.554;7.834;2023-03-23T08:19:11;2.77;;;1.70;;
4268;SDS011;2148;48.554;7.834;2023-03-23T08:21:36;2.10;;;1.83;;
4268;SDS011;2148;48.554;7.834;2023-03-23T08:24:02;2.37;;;1.90;;
4268;SDS011;2148;48.554;7.834;2023-03-23T08:26:27;2.33;;;2.00;;
4268;SDS011;2148;48.554;7.834;2023-03-23T08:28:53;2.10;;;1.90;;
4268;SDS011;2148;48.554;7.834;2023-03-23T08:31:18;4.60;;;2.00;;
4268;SDS011;2148;48.554;7.834;2023-03-23T08:33:43;3.57;;;2.30;;
4268;SDS011;2148;48.554;7.834;2023-03-23T08:36:09;2.87;;;1.80;;
4268;SDS011;2148;48.554;7.834;2023-03-23T08:38:35;2.87;;;2.10;;
4268;SDS011;2148;48.554;7.834;2023-03-23T08:41:02;2.20;;;2.00;;
4268;SDS011;2148;48.554;7.834;2023-03-23T08:43:29;2.03;;;1.83;;
4268;SDS011;2148;48.554;7.834;2023-03-23T08:45:55;3.37;;;1.83;;
4268;SDS011;2148;48.554;7.834;2023-03-23T08:48:21;2.73;;;2.10;;
4268;SDS011;2148;48.554;7.834;2023-03-23T08:50:47;2.23;;;1.90;;
4268;SDS011;2148;48.554;7.834;2023-03-23T08:53:13;2.10;;;1.83;;
4268;SDS011;2148;48.554;7.834;2023-03-23T08:55:39;2.37;;;1.97;;
4268;SDS011;2148;48.554;7.834;2023-03-23T08:58:05;2.17;;;1.97;;
4268;SDS011;2148;48.554;7.834;2023-03-23T09:00:30;3.27;;;2.10;;
4268;SDS011;2148;48.554;7.834;2023-03-23T09:02:55;2.60;;;2.20;;
4268;SDS011;2148;48.554;7.834;2023-03-23T09:05:22;2.50;;;1.77;;
4268;SDS011;2148;48.554;7.834;2023-03-23T09:07:50;5.50;;;2.20;;
4268;SDS011;2148;48.554;7.834;2023-03-23T09:10:17;2.67;;;1.70;;
4268;SDS011;2148;48.554;7.834;2023-03-23T09:12:43;3.57;;;1.97;;
4268;SDS011;2148;48.554;7.834;2023-03-23T09:15:10;2.20;;;2.00;;
4268;SDS011;2148;48.554;7.834;2023-03-23T09:17:40;4.17;;;2.50;;
4268;SDS011;2148;48.554;7.834;2023-03-23T09:20:07;4.43;;;2.10;;
4268;SDS011;2148;48.554;7.834;2023-03-23T09:22:40;3.33;;;2.30;;
4268;SDS011;2148;48.554;7.834;2023-03-23T09:25:08;2.67;;;2.20;;
4268;SDS011;2148;48.554;7.834;2023-03-23T09:27:35;2.73;;;2.27;;
4268;SDS011;2148;48.554;7.834;2023-03-23T09:30:02;1.93;;;1.80;;
4268;SDS011;2148;48.554;7.834;2023-03-23T09:32:31;2.90;;;2.40;;
4268;SDS011;2148;48.554;7.834;2023-03-23T09:38:19;3.20;;;2.90;;
4268;SDS011;2148;48.554;7.834;2023-03-23T09:41:11;3.50;;;2.90;;
4268;SDS011;2148;48.554;7.834;2023-03-23T09:43:59;4.23;;;2.40;;
4268;SDS011;2148;48.554;7.834;2023-03-23T09:49:23;2.83;;;2.53;;
4268;SDS011;2148;48.554;7.834;2023-03-23T09:51:54;3.63;;;2.60;;
4268;SDS011;2148;48.554;7.834;2023-03-23T09:54:25;2.90;;;2.60;;
4268;SDS011;2148;48.554;7.834;2023-03-23T09:56:52;4.30;;;2.43;;
4268;SDS011;2148;48.554;7.834;2023-03-23T09:59:20;4.17;;;2.53;;
4268;SDS011;2148;48.554;7.834;2023-03-23T10:01:50;5.30;;;3.13;;
4268;SDS011;2148;48.554;7.834;2023-03-23T10:04:24;3.63;;;3.03;;
4268;SDS011;2148;48.554;7.834;2023-03-23T10:06:56;4.17;;;3.23;;
4268;SDS011;2148;48.554;7.834;2023-03-23T10:09:24;4.33;;;3.43;;
4268;SDS011;2148;48.554;7.834;2023-03-23T10:17:29;4.43;;;3.33;;
4268;SDS011;2148;48.554;7.834;2023-03-23T10:20:19;3.50;;;3.20;;
4268;SDS011;2148;48.554;7.834;2023-03-23T10:28:43;5.83;;;3.20;;
4268;SDS011;2148;48.554;7.834;2023-03-23T10:31:11;5.37;;;3.20;;
4268;SDS011;2148;48.554;7.834;2023-03-23T10:33:54;7.43;;;3.53;;
4268;SDS011;2148;48.554;7.834;2023-03-23T10:36:27;3.70;;;2.90;;
4268;SDS011;2148;48.554;7.834;2023-03-23T10:38:59;3.67;;;3.20;;
4268;SDS011;2148;48.554;7.834;2023-03-23T10:41:28;3.30;;;3.00;;
4268;SDS011;2148;48.554;7.834;2023-03-23T10:43:54;5.03;;;3.00;;
4268;SDS011;2148;48.554;7.834;2023-03-23T10:46:22;3.80;;;3.03;;
4268;SDS011;2148;48.554;7.834;2023-03-23T10:48:56;4.07;;;2.90;;
4268;SDS011;2148;48.554;7.834;2023-03-23T10:51:24;3.67;;;2.90;;
4268;SDS011;2148;48.554;7.834;2023-03-23T10:53:56;3.57;;;3.07;;
4268;SDS011;2148;48.554;7.834;2023-03-23T10:56:27;3.33;;;3.00;;
4268;SDS011;2148;48.554;7.834;2023-03-23T10:58:53;3.43;;;2.90;;
4268;SDS011;2148;48.554;7.834;2023-03-23T11:01:20;4.30;;;3.17;;
4268;SDS011;2148;48.554;7.834;2023-03-23T11:03:54;3.40;;;3.10;;
4268;SDS011;2148;48.554;7.834;2023-03-23T11:06:22;3.47;;;3.17;;
4268;SDS011;2148;48.554;7.834;2023-03-23T11:08:52;4.03;;;2.93;;
4268;SDS011;2148;48.554;7.834;2023-03-23T11:11:24;4.40;;;3.33;;
4268;SDS011;2148;48.554;7.834;2023-03-23T11:16:44;16.07;;;3.80;;
4268;SDS011;2148;48.554;7.834;2023-03-23T11:19:15;5.33;;;3.00;;
4268;SDS011;2148;48.554;7.834;2023-03-23T11:21:47;3.53;;;3.23;;
4268;SDS011;2148;48.554;7.834;2023-03-23T11:24:13;5.50;;;3.07;;
4268;SDS011;2148;48.554;7.834;2023-03-23T11:26:38;3.43;;;2.57;;
4268;SDS011;2148;48.554;7.834;2023-03-23T11:29:05;3.77;;;2.93;;
4268;SDS011;2148;48.554;7.834;2023-03-23T11:31:36;3.17;;;2.83;;
4268;SDS011;2148;48.554;7.834;2023-03-23T11:34:08;6.07;;;3.20;;
4268;SDS011;2148;48.554;7.834;2023-03-23T11:36:36;3.80;;;2.83;;
4268;SDS011;2148;48.554;7.834;2023-03-23T11:39:25;5.10;;;2.73;;
4268;SDS011;2148;48.554;7.834;2023-03-23T11:42:00;3.47;;;2.53;;
4268;SDS011;2148;48.554;7.834;2023-03-23T11:44:32;2.80;;;2.60;;
4268;SDS011;2148;48.554;7.834;2023-03-23T11:50:04;3.50;;;2.90;;
4268;SDS011;2148;48.554;7.834;2023-03-23T11:52:49;3.00;;;2.70;;
4268;SDS011;2148;48.554;7.834;2023-03-23T11:55:35;3.70;;;3.10;;
4268;SDS011;2148;48.554;7.834;2023-03-23T11:58:17;7.27;;;2.90;;
4268;SDS011;2148;48.554;7.834;2023-03-23T12:00:57;4.73;;;2.70;;
4268;SDS011;2148;48.554;7.834;2023-03-23T12:08:54;3.17;;;2.30;;
4268;SDS011;2148;48.554;7.834;2023-03-23T12:11:45;2.63;;;2.23;;
4268;SDS011;2148;48.554;7.834;2023-03-23T12:14:40;4.07;;;3.20;;
4268;SDS011;2148;48.554;7.834;2023-03-23T12:22:53;2.87;;;2.63;;
4268;SDS011;2148;48.554;7.834;2023-03-23T12:28:58;5.53;;;2.50;;
4268;SDS011;2148;48.554;7.834;2023-03-23T12:31:32;2.80;;;2.60;;
4268;SDS011;2148;48.554;7.834;2023-03-23T12:36:36;3.03;;;2.70;;
4268;SDS011;2148;48.554;7.834;2023-03-23T12:47:59;3.43;;;2.40;;
4268;SDS011;2148;48.554;7.834;2023-03-23T12:55:50;2.50;;;2.30;;
4268;SDS011;2148;48.554;7.834;2023-03-23T12:58:30;3.77;;;2.50;;
4268;SDS011;2148;48.554;7.834;2023-03-23T13:00:59;4.67;;;2.60;;
4268;SDS011;2148;48.554;7.834;2023-03-23T13:03:51;3.60;;;2.60;;
4268;SDS011;2148;48.554;7.834;2023-03-23T13:06:31;2.53;;;2.30;;
4268;SDS011;2148;48.554;7.834;2023-03-23T13:09:04;2.97;;;2.50;;
4268;SDS011;2148;48.554;7.834;2023-03-23T13:11:40;3.53;;;2.57;;
4268;SDS011;2148;48.554;7.834;2023-03-23T13:14:25;3.47;;;2.80;;
4268;SDS011;2148;48.554;7.834;2023-03-23T13:22:41;3.73;;;2.67;;
4268;SDS011;2148;48.554;7.834;2023-03-23T13:25:13;2.73;;;2.50;;
4268;SDS011;2148;48.554;7.834;2023-03-23T13:27:44;4.97;;;2.83;;
4268;SDS011;2148;48.554;7.834;2023-03-23T13:30:21;3.80;;;2.67;;
4268;SDS011;2148;48.554;7.834;2023-03-23T13:32:47;3.07;;;2.77;;
4268;SDS011;2148;48.554;7.834;2023-03-23T13:35:13;3.93;;;2.53;;
4268;SDS011;2148;48.554;7.834;2023-03-23T13:37:44;2.90;;;2.63;;
4268;SDS011;2148;48.554;7.834;2023-03-23T13:40:30;2.80;;;2.50;;
4268;SDS011;2148;48.554;7.834;2023-03-23T13:42:59;2.63;;;2.43;;
4268;SDS011;2148;48.554;7.834;2023-03-23T13:50:54;4.53;;;2.80;;
4268;SDS011;2148;48.554;7.834;2023-03-23T13:53:31;3.57;;;2.80;;
4268;SDS011;2148;48.554;7.834;2023-03-23T13:56:21;2.70;;;2.50;;
4268;SDS011;2148;48.554;7.834;2023-03-23T13:59:14;3.40;;;2.67;;
4268;SDS011;2148;48.554;7.834;2023-03-23T14:01:41;4.00;;;2.80;;
4268;SDS011;2148;48.554;7.834;2023-03-23T14:04:17;2.53;;;2.33;;
4268;SDS011;2148;48.554;7.834;2023-03-23T14:06:44;3.23;;;2.60;;
4268;SDS011;2148;48.554;7.834;2023-03-23T14:09:12;2.67;;;2.47;;
4268;SDS011;2148;48.554;7.834;2023-03-23T14:11:59;3.77;;;2.50;;
4268;SDS011;2148;48.554;7.834;2023-03-23T14:14:33;3.40;;;2.63;;
4268;SDS011;2148;48.554;7.834;2023-03-23T14:17:05;2.80;;;2.60;;
4268;SDS011;2148;48.554;7.834;2023-03-23T14:19:38;2.93;;;2.73;;
4268;SDS011;2148;48.554;7.834;2023-03-23T14:22:05;3.53;;;2.83;;
4268;SDS011;2148;48.554;7.834;2023-03-23T14:24:42;3.10;;;2.50;;
4268;SDS011;2148;48.554;7.834;2023-03-23T14:29:32;3.13;;;2.80;;
4268;SDS011;2148;48.554;7.834;2023-03-23T14:31:58;3.30;;;2.83;;
4268;SDS011;2148;48.554;7.834;2023-03-23T14:34:25;3.10;;;2.90;;
4268;SDS011;2148;48.554;7.834;2023-03-23T14:36:52;4.23;;;3.03;;
4268;SDS011;2148;48.554;7.834;2023-03-23T14:41:46;4.07;;;3.67;;
4268;SDS011;2148;48.554;7.834;2023-03-23T14:44:16;4.17;;;3.20;;
4268;SDS011;2148;48.554;7.834;2023-03-23T14:46:43;6.30;;;3.17;;
4268;SDS011;2148;48.554;7.834;2023-03-23T14:49:10;4.20;;;3.00;;
4268;SDS011;2148;48.554;7.834;2023-03-23T14:51:46;3.67;;;2.70;;
4268;SDS011;2148;48.554;7.834;2023-03-23T14:54:12;3.20;;;2.90;;
4268;SDS011;2148;48.554;7.834;2023-03-23T14:56:37;3.63;;;3.10;;
4268;SDS011;2148;48.554;7.834;2023-03-23T14:59:03;3.30;;;3.00;;
4268;SDS011;2148;48.554;7.834;2023-03-23T15:01:31;3.00;;;2.70;;
4268;SDS011;2148;48.554;7.834;2023-03-23T15:03:59;2.63;;;2.43;;
4268;SDS011;2148;48.554;7.834;2023-03-23T15:06:28;5.63;;;3.00;;
4268;SDS011;2148;48.554;7.834;2023-03-23T15:08:56;3.37;;;2.93;;
4268;SDS011;2148;48.554;7.834;2023-03-23T15:11:27;5.23;;;3.20;;
4268;SDS011;2148;48.554;7.834;2023-03-23T15:13:58;3.53;;;2.50;;
4268;SDS011;2148;48.554;7.834;2023-03-23T15:16:28;3.37;;;2.27;;
4268;SDS011;2148;48.554;7.834;2023-03-23T15:18:56;2.40;;;2.20;;
4268;SDS011;2148;48.554;7.834;2023-03-23T15:21:26;2.70;;;2.47;;
4268;SDS011;2148;48.554;7.834;2023-03-23T15:23:53;3.57;;;2.60;;
4268;SDS011;2148;48.554;7.834;2023-03-23T15:26:28;2.57;;;2.37;;
4268;SDS011;2148;48.554;7.834;2023-03-23T15:31:33;2.50;;;2.30;;
4268;SDS011;2148;48.554;7.834;2023-03-23T15:34:03;5.20;;;2.40;;
4268;SDS011;2148;48.554;7.834;2023-03-23T15:36:31;4.93;;;2.10;;
4268;SDS011;2148;48.554;7.834;2023-03-23T15:38:59;2.30;;;2.10;;
4268;SDS011;2148;48.554;7.834;2023-03-23T15:41:26;2.90;;;2.40;;
4268;SDS011;2148;48.554;7.834;2023-03-23T15:43:56;2.67;;;2.20;;
4268;SDS011;2148;48.554;7.834;2023-03-23T15:46:24;2.43;;;2.23;;
4268;SDS011;2148;48.554;7.834;2023-03-23T15:51:22;4.40;;;2.30;;
4268;SDS011;2148;48.554;7.834;2023-03-23T15:53:50;2.87;;;2.20;;
4268;SDS011;2148;48.554;7.834;2023-03-23T15:56:16;2.40;;;2.20;;
4268;SDS011;2148;48.554;7.834;2023-03-23T15:58:41;6.47;;;2.30;;
4268;SDS011;2148;48.554;7.834;2023-03-23T16:01:11;2.13;;;1.70;;
4268;SDS011;2148;48.554;7.834;2023-03-23T16:03:39;2.67;;;1.77;;
4268;SDS011;2148;48.554;7.834;2023-03-23T16:06:09;2.53;;;2.33;;
4268;SDS011;2148;48.554;7.834;2023-03-23T16:08:36;2.40;;;2.20;;
4268;SDS011;2148;48.554;7.834;2023-03-23T16:11:04;2.70;;;2.50;;
4268;SDS011;2148;48.554;7.834;2023-03-23T16:13:31;4.13;;;2.10;;
4268;SDS011;2148;48.554;7.834;2023-03-23T16:15:56;3.50;;;2.07;;
4268;SDS011;2148;48.554;7.834;2023-03-23T16:18:21;3.33;;;2.47;;
4268;SDS011;2148;48.554;7.834;2023-03-23T16:20:47;2.33;;;1.90;;
4268;SDS011;2148;48.554;7.834;2023-03-23T16:23:13;4.70;;;2.27;;
4268;SDS011;2148;48.554;7.834;2023-03-23T16:25:39;2.40;;;2.07;;
4268;SDS011;2148;48.554;7.834;2023-03-23T16:28:04;4.63;;;2.37;;
4268;SDS011;2148;48.554;7.834;2023-03-23T16:30:31;2.90;;;2.00;;
4268;SDS011;2148;48.554;7.834;2023-03-23T16:32:58;3.23;;;2.10;;
4268;SDS011;2148;48.554;7.834;2023-03-23T16:35:23;3.43;;;2.60;;
4268;SDS011;2148;48.554;7.834;2023-03-23T16:37:49;2.60;;;2.40;;
4268;SDS011;2148;48.554;7.834;2023-03-23T16:40:17;3.57;;;2.40;;
4268;SDS011;2148;48.554;7.834;2023-03-23T16:42:44;3.27;;;2.30;;
4268;SDS011;2148;48.554;7.834;2023-03-23T16:45:10;2.63;;;2.40;;
4268;SDS011;2148;48.554;7.834;2023-03-23T16:47:36;3.37;;;2.27;;
4268;SDS011;2148;48.554;7.834;2023-03-23T16:50:02;3.90;;;2.40;;
4268;SDS011;2148;48.554;7.834;2023-03-23T16:52:30;2.67;;;2.07;;
4268;SDS011;2148;48.554;7.834;2023-03-23T16:54:56;2.97;;;2.60;;
4268;SDS011;2148;48.554;7.834;2023-03-23T16:57:21;2.63;;;2.30;;
4268;SDS011;2148;48.554;7.834;2023-03-23T16:59:46;2.73;;;2.20;;